sensor_id;sensor_type;location;lat;lon;timestamp;P1;durP1;ratioP1;P2;durP2;ratioP2
71969;SDS011;59838;52.152;5.436;2023-07-24T00:00:25;3.23;;;1.90;;
71969;SDS011;59838;52.152;5.436;2023-07-24T00:02:52;4.68;;;1.63;;
71969;SDS011;59838;52.152;5.436;2023-07-24T00:05:20;4.10;;;1.92;;
71969;SDS011;59838;52.152;5.436;2023-07-24T00:07:46;3.95;;;1.80;;
71969;SDS011;59838;52.152;5.436;2023-07-24T00:10:13;2.85;;;2.33;;
71969;SDS011;59838;52.152;5.436;2023-07-24T00:12:39;2.77;;;2.00;;
71969;SDS011;59838;52.152;5.436;2023-07-24T00:15:06;3.33;;;1.80;;
71969;SDS011;59838;52.152;5.436;2023-07-24T00:17:33;2.47;;;1.40;;
71969;SDS011;59838;52.152;5.436;2023-07-24T00:19:59;3.35;;;2.30;;
71969;SDS011;59838;52.152;5.436;2023-07-24T00:22:26;2.85;;;1.42;;
71969;SDS011;59838;52.152;5.436;2023-07-24T00:24:52;2.90;;;1.67;;
71969;SDS011;59838;52.152;5.436;2023-07-24T00:27:19;2.53;;;1.92;;
71969;SDS011;59838;52.152;5.436;2023-07-24T00:29:45;2.60;;;1.80;;
71969;SDS011;59838;52.152;5.436;2023-07-24T00:32:12;3.17;;;1.80;;
71969;SDS011;59838;52.152;5.436;2023-07-24T00:34:38;2.60;;;1.67;;
71969;SDS011;59838;52.152;5.436;2023-07-24T00:37:05;2.87;;;1.57;;
71969;SDS011;59838;52.152;5.436;2023-07-24T00:39:31;3.45;;;1.60;;
71969;SDS011;59838;52.152;5.436;2023-07-24T00:41:58;2.20;;;1.83;;
71969;SDS011;59838;52.152;5.436;2023-07-24T00:44:24;1.92;;;1.30;;
71969;SDS011;59838;52.152;5.436;2023-07-24T00:46:51;5.10;;;2.10;;
71969;SDS011;59838;52.152;5.436;2023-07-24T00:49:17;2.20;;;1.43;;
71969;SDS011;59838;52.152;5.436;2023-07-24T00:51:44;2.88;;;1.30;;
71969;SDS011;59838;52.152;5.436;2023-07-24T00:54:12;2.20;;;1.50;;
71969;SDS011;59838;52.152;5.436;2023-07-24T00:56:44;3.03;;;1.80;;
71969;SDS011;59838;52.152;5.436;2023-07-24T00:59:11;3.40;;;1.85;;
71969;SDS011;59838;52.152;5.436;2023-07-24T01:01:37;2.20;;;1.60;;
71969;SDS011;59838;52.152;5.436;2023-07-24T01:04:07;2.50;;;1.77;;
71969;SDS011;59838;52.152;5.436;2023-07-24T01:06:34;3.72;;;2.10;;
71969;SDS011;59838;52.152;5.436;2023-07-24T01:09:00;2.90;;;1.77;;
71969;SDS011;59838;52.152;5.436;2023-07-24T01:11:27;3.03;;;1.85;;
71969;SDS011;59838;52.152;5.436;2023-07-24T01:14:02;2.60;;;1.63;;
71969;SDS011;59838;52.152;5.436;2023-07-24T01:16:40;2.97;;;1.90;;
71969;SDS011;59838;52.152;5.436;2023-07-24T01:19:12;2.75;;;1.92;;
71969;SDS011;59838;52.152;5.436;2023-07-24T01:21:52;2.42;;;1.70;;
71969;SDS011;59838;52.152;5.436;2023-07-24T01:24:33;2.75;;;1.77;;
71969;SDS011;59838;52.152;5.436;2023-07-24T01:27:18;2.90;;;1.70;;
71969;SDS011;59838;52.152;5.436;2023-07-24T01:29:46;2.55;;;1.50;;
71969;SDS011;59838;52.152;5.436;2023-07-24T01:32:13;3.45;;;1.88;;
71969;SDS011;59838;52.152;5.436;2023-07-24T01:34:39;2.53;;;1.98;;
71969;SDS011;59838;52.152;5.436;2023-07-24T01:37:06;2.88;;;1.90;;
71969;SDS011;59838;52.152;5.436;2023-07-24T01:39:32;3.33;;;2.40;;
71969;SDS011;59838;52.152;5.436;2023-07-24T01:42:00;3.53;;;1.42;;
71969;SDS011;59838;52.152;5.436;2023-07-24T01:44:28;2.63;;;1.63;;
71969;SDS011;59838;52.152;5.436;2023-07-24T01:46:54;2.95;;;2.05;;
71969;SDS011;59838;52.152;5.436;2023-07-24T01:49:21;3.28;;;2.22;;
71969;SDS011;59838;52.152;5.436;2023-07-24T01:51:47;2.37;;;1.90;;
71969;SDS011;59838;52.152;5.436;2023-07-24T01:54:14;4.60;;;2.03;;
71969;SDS011;59838;52.152;5.436;2023-07-24T01:56:40;2.38;;;1.88;;
71969;SDS011;59838;52.152;5.436;2023-07-24T01:59:07;3.40;;;2.15;;
71969;SDS011;59838;52.152;5.436;2023-07-24T02:01:33;2.42;;;1.83;;
71969;SDS011;59838;52.152;5.436;2023-07-24T02:04:00;2.63;;;2.03;;
71969;SDS011;59838;52.152;5.436;2023-07-24T02:06:26;4.82;;;2.20;;
71969;SDS011;59838;52.152;5.436;2023-07-24T02:08:53;3.30;;;1.80;;
71969;SDS011;59838;52.152;5.436;2023-07-24T02:11:20;2.28;;;1.73;;
71969;SDS011;59838;52.152;5.436;2023-07-24T02:13:46;2.90;;;1.73;;
71969;SDS011;59838;52.152;5.436;2023-07-24T02:16:13;3.63;;;1.93;;
71969;SDS011;59838;52.152;5.436;2023-07-24T02:18:43;2.60;;;1.80;;
71969;SDS011;59838;52.152;5.436;2023-07-24T02:21:09;3.55;;;2.80;;
71969;SDS011;59838;52.152;5.436;2023-07-24T02:23:36;4.18;;;2.45;;
71969;SDS011;59838;52.152;5.436;2023-07-24T02:26:02;2.72;;;2.08;;
71969;SDS011;59838;52.152;5.436;2023-07-24T02:28:29;2.77;;;2.20;;
71969;SDS011;59838;52.152;5.436;2023-07-24T02:30:56;3.00;;;2.30;;
71969;SDS011;59838;52.152;5.436;2023-07-24T02:33:22;4.00;;;2.20;;
71969;SDS011;59838;52.152;5.436;2023-07-24T02:35:50;3.03;;;2.50;;
71969;SDS011;59838;52.152;5.436;2023-07-24T02:38:18;3.75;;;2.70;;
71969;SDS011;59838;52.152;5.436;2023-07-24T02:40:45;3.50;;;2.60;;
71969;SDS011;59838;52.152;5.436;2023-07-24T02:43:11;3.53;;;2.60;;
71969;SDS011;59838;52.152;5.436;2023-07-24T02:45:38;2.90;;;2.35;;
71969;SDS011;59838;52.152;5.436;2023-07-24T02:48:05;3.58;;;2.50;;
71969;SDS011;59838;52.152;5.436;2023-07-24T02:50:34;3.63;;;2.40;;
71969;SDS011;59838;52.152;5.436;2023-07-24T02:53:01;3.23;;;2.40;;
71969;SDS011;59838;52.152;5.436;2023-07-24T02:55:27;2.97;;;2.10;;
71969;SDS011;59838;52.152;5.436;2023-07-24T02:57:54;4.00;;;2.40;;
71969;SDS011;59838;52.152;5.436;2023-07-24T03:00:21;3.72;;;2.10;;
71969;SDS011;59838;52.152;5.436;2023-07-24T03:02:47;3.38;;;2.15;;
71969;SDS011;59838;52.152;5.436;2023-07-24T03:05:14;4.13;;;2.30;;
71969;SDS011;59838;52.152;5.436;2023-07-24T03:07:40;2.50;;;1.85;;
71969;SDS011;59838;52.152;5.436;2023-07-24T03:10:07;3.10;;;1.88;;
71969;SDS011;59838;52.152;5.436;2023-07-24T03:12:34;4.05;;;2.38;;
71969;SDS011;59838;52.152;5.436;2023-07-24T03:15:00;3.70;;;2.67;;
71969;SDS011;59838;52.152;5.436;2023-07-24T03:17:27;3.30;;;2.50;;
71969;SDS011;59838;52.152;5.436;2023-07-24T03:19:54;4.20;;;2.92;;
71969;SDS011;59838;52.152;5.436;2023-07-24T03:22:21;4.10;;;3.08;;
71969;SDS011;59838;52.152;5.436;2023-07-24T03:24:47;3.85;;;2.90;;
71969;SDS011;59838;52.152;5.436;2023-07-24T03:27:14;3.58;;;2.70;;
71969;SDS011;59838;52.152;5.436;2023-07-24T03:29:40;4.80;;;3.37;;
71969;SDS011;59838;52.152;5.436;2023-07-24T03:32:07;4.18;;;2.70;;
71969;SDS011;59838;52.152;5.436;2023-07-24T03:34:34;5.25;;;2.60;;
71969;SDS011;59838;52.152;5.436;2023-07-24T03:37:00;3.25;;;2.67;;
71969;SDS011;59838;52.152;5.436;2023-07-24T03:39:26;4.75;;;3.05;;
71969;SDS011;59838;52.152;5.436;2023-07-24T03:41:53;3.37;;;2.57;;
71969;SDS011;59838;52.152;5.436;2023-07-24T03:44:19;6.10;;;2.53;;
71969;SDS011;59838;52.152;5.436;2023-07-24T03:46:46;3.90;;;2.60;;
71969;SDS011;59838;52.152;5.436;2023-07-24T03:49:12;4.28;;;2.38;;
71969;SDS011;59838;52.152;5.436;2023-07-24T03:51:39;4.53;;;2.45;;
71969;SDS011;59838;52.152;5.436;2023-07-24T03:54:05;4.00;;;2.37;;
71969;SDS011;59838;52.152;5.436;2023-07-24T03:56:32;4.25;;;2.40;;
71969;SDS011;59838;52.152;5.436;2023-07-24T03:58:58;4.95;;;2.55;;
71969;SDS011;59838;52.152;5.436;2023-07-24T04:01:24;4.18;;;2.70;;
71969;SDS011;59838;52.152;5.436;2023-07-24T04:03:51;5.07;;;2.85;;
71969;SDS011;59838;52.152;5.436;2023-07-24T04:06:18;3.40;;;2.43;;
71969;SDS011;59838;52.152;5.436;2023-07-24T04:08:45;3.70;;;2.67;;
71969;SDS011;59838;52.152;5.436;2023-07-24T04:11:11;5.05;;;2.58;;
71969;SDS011;59838;52.152;5.436;2023-07-24T04:13:38;7.43;;;2.60;;
71969;SDS011;59838;52.152;5.436;2023-07-24T04:16:04;4.57;;;3.05;;
71969;SDS011;59838;52.152;5.436;2023-07-24T04:18:31;4.57;;;2.90;;
71969;SDS011;59838;52.152;5.436;2023-07-24T04:20:57;3.97;;;2.45;;
71969;SDS011;59838;52.152;5.436;2023-07-24T04:23:23;6.18;;;2.38;;
71969;SDS011;59838;52.152;5.436;2023-07-24T04:25:50;4.68;;;2.67;;
71969;SDS011;59838;52.152;5.436;2023-07-24T04:28:16;4.65;;;2.75;;
71969;SDS011;59838;52.152;5.436;2023-07-24T04:30:43;4.00;;;3.30;;
71969;SDS011;59838;52.152;5.436;2023-07-24T04:33:09;5.63;;;2.95;;
71969;SDS011;59838;52.152;5.436;2023-07-24T04:35:36;3.50;;;2.65;;
71969;SDS011;59838;52.152;5.436;2023-07-24T04:38:02;5.47;;;2.95;;
71969;SDS011;59838;52.152;5.436;2023-07-24T04:40:29;4.80;;;2.88;;
71969;SDS011;59838;52.152;5.436;2023-07-24T04:42:55;5.10;;;3.03;;
71969;SDS011;59838;52.152;5.436;2023-07-24T04:45:22;4.47;;;3.17;;
71969;SDS011;59838;52.152;5.436;2023-07-24T04:47:49;5.55;;;2.78;;
71969;SDS011;59838;52.152;5.436;2023-07-24T04:50:16;3.78;;;2.88;;
71969;SDS011;59838;52.152;5.436;2023-07-24T04:52:42;5.72;;;3.33;;
71969;SDS011;59838;52.152;5.436;2023-07-24T04:55:08;5.00;;;2.83;;
71969;SDS011;59838;52.152;5.436;2023-07-24T04:57:35;6.00;;;3.70;;
71969;SDS011;59838;52.152;5.436;2023-07-24T05:00:01;4.32;;;2.95;;
71969;SDS011;59838;52.152;5.436;2023-07-24T05:02:28;5.18;;;3.45;;
71969;SDS011;59838;52.152;5.436;2023-07-24T05:04:55;5.20;;;3.17;;
71969;SDS011;59838;52.152;5.436;2023-07-24T05:07:21;6.23;;;3.60;;
71969;SDS011;59838;52.152;5.436;2023-07-24T05:09:48;6.78;;;3.65;;
71969;SDS011;59838;52.152;5.436;2023-07-24T05:12:14;6.28;;;2.97;;
71969;SDS011;59838;52.152;5.436;2023-07-24T05:14:41;4.35;;;3.10;;
71969;SDS011;59838;52.152;5.436;2023-07-24T05:17:07;5.82;;;3.47;;
71969;SDS011;59838;52.152;5.436;2023-07-24T05:19:33;5.87;;;3.37;;
71969;SDS011;59838;52.152;5.436;2023-07-24T05:22:00;4.43;;;3.38;;
71969;SDS011;59838;52.152;5.436;2023-07-24T05:24:26;4.38;;;3.38;;
71969;SDS011;59838;52.152;5.436;2023-07-24T05:26:53;8.95;;;4.10;;
71969;SDS011;59838;52.152;5.436;2023-07-24T05:29:19;6.00;;;3.20;;
71969;SDS011;59838;52.152;5.436;2023-07-24T05:31:46;6.87;;;3.33;;
71969;SDS011;59838;52.152;5.436;2023-07-24T05:34:12;4.80;;;3.30;;
71969;SDS011;59838;52.152;5.436;2023-07-24T05:36:40;3.97;;;3.03;;
71969;SDS011;59838;52.152;5.436;2023-07-24T05:39:06;5.05;;;3.72;;
71969;SDS011;59838;52.152;5.436;2023-07-24T05:41:33;7.38;;;3.25;;
71969;SDS011;59838;52.152;5.436;2023-07-24T05:43:59;4.47;;;2.63;;
71969;SDS011;59838;52.152;5.436;2023-07-24T05:46:26;6.80;;;3.58;;
71969;SDS011;59838;52.152;5.436;2023-07-24T05:48:53;7.32;;;3.60;;
71969;SDS011;59838;52.152;5.436;2023-07-24T05:51:20;4.70;;;3.28;;
71969;SDS011;59838;52.152;5.436;2023-07-24T05:53:46;6.55;;;3.50;;
71969;SDS011;59838;52.152;5.436;2023-07-24T05:56:13;5.70;;;3.20;;
71969;SDS011;59838;52.152;5.436;2023-07-24T05:58:39;5.00;;;3.35;;
71969;SDS011;59838;52.152;5.436;2023-07-24T06:01:06;6.25;;;3.17;;
71969;SDS011;59838;52.152;5.436;2023-07-24T06:03:36;4.43;;;3.20;;
71969;SDS011;59838;52.152;5.436;2023-07-24T06:06:02;7.05;;;3.10;;
71969;SDS011;59838;52.152;5.436;2023-07-24T06:08:29;6.13;;;3.53;;
71969;SDS011;59838;52.152;5.436;2023-07-24T06:10:55;6.75;;;3.28;;
71969;SDS011;59838;52.152;5.436;2023-07-24T06:13:22;7.40;;;3.63;;
71969;SDS011;59838;52.152;5.436;2023-07-24T06:15:49;7.18;;;3.30;;
71969;SDS011;59838;52.152;5.436;2023-07-24T06:18:16;8.50;;;3.95;;
71969;SDS011;59838;52.152;5.436;2023-07-24T06:20:42;5.33;;;3.43;;
71969;SDS011;59838;52.152;5.436;2023-07-24T06:23:09;5.15;;;3.13;;
71969;SDS011;59838;52.152;5.436;2023-07-24T06:25:35;6.38;;;2.88;;
71969;SDS011;59838;52.152;5.436;2023-07-24T06:28:02;6.22;;;3.15;;
71969;SDS011;59838;52.152;5.436;2023-07-24T06:30:29;4.43;;;3.03;;
71969;SDS011;59838;52.152;5.436;2023-07-24T06:32:55;6.17;;;2.90;;
71969;SDS011;59838;52.152;5.436;2023-07-24T06:35:22;5.20;;;3.20;;
71969;SDS011;59838;52.152;5.436;2023-07-24T06:37:48;4.30;;;3.50;;
71969;SDS011;59838;52.152;5.436;2023-07-24T06:40:14;4.38;;;3.22;;
71969;SDS011;59838;52.152;5.436;2023-07-24T06:42:41;5.03;;;2.80;;
71969;SDS011;59838;52.152;5.436;2023-07-24T06:45:08;6.03;;;3.63;;
71969;SDS011;59838;52.152;5.436;2023-07-24T06:47:34;5.00;;;3.30;;
71969;SDS011;59838;52.152;5.436;2023-07-24T06:50:01;5.97;;;3.20;;
71969;SDS011;59838;52.152;5.436;2023-07-24T06:52:28;7.25;;;2.80;;
71969;SDS011;59838;52.152;5.436;2023-07-24T06:54:55;5.95;;;3.10;;
71969;SDS011;59838;52.152;5.436;2023-07-24T06:57:22;3.63;;;2.80;;
71969;SDS011;59838;52.152;5.436;2023-07-24T06:59:48;6.55;;;2.75;;
71969;SDS011;59838;52.152;5.436;2023-07-24T07:02:15;8.95;;;2.92;;
71969;SDS011;59838;52.152;5.436;2023-07-24T07:04:41;4.30;;;2.20;;
71969;SDS011;59838;52.152;5.436;2023-07-24T07:07:08;5.88;;;2.63;;
71969;SDS011;59838;52.152;5.436;2023-07-24T07:09:34;8.87;;;3.30;;
71969;SDS011;59838;52.152;5.436;2023-07-24T07:12:01;3.88;;;2.88;;
71969;SDS011;59838;52.152;5.436;2023-07-24T07:14:27;5.22;;;2.75;;
71969;SDS011;59838;52.152;5.436;2023-07-24T07:16:54;5.65;;;2.90;;
71969;SDS011;59838;52.152;5.436;2023-07-24T07:19:20;4.38;;;3.10;;
71969;SDS011;59838;52.152;5.436;2023-07-24T07:21:47;10.30;;;4.03;;
71969;SDS011;59838;52.152;5.436;2023-07-24T07:24:13;8.20;;;3.00;;
71969;SDS011;59838;52.152;5.436;2023-07-24T07:26:40;7.93;;;3.00;;
71969;SDS011;59838;52.152;5.436;2023-07-24T07:29:07;5.80;;;2.90;;
71969;SDS011;59838;52.152;5.436;2023-07-24T07:31:33;6.63;;;3.05;;
71969;SDS011;59838;52.152;5.436;2023-07-24T07:34:00;5.77;;;3.00;;
71969;SDS011;59838;52.152;5.436;2023-07-24T07:36:26;5.75;;;2.30;;
71969;SDS011;59838;52.152;5.436;2023-07-24T07:38:53;5.63;;;3.10;;
71969;SDS011;59838;52.152;5.436;2023-07-24T07:41:20;5.38;;;2.50;;
71969;SDS011;59838;52.152;5.436;2023-07-24T07:43:46;4.53;;;3.05;;
71969;SDS011;59838;52.152;5.436;2023-07-24T07:46:13;5.40;;;3.20;;
71969;SDS011;59838;52.152;5.436;2023-07-24T07:48:42;6.85;;;3.05;;
71969;SDS011;59838;52.152;5.436;2023-07-24T07:51:09;3.50;;;2.58;;
71969;SDS011;59838;52.152;5.436;2023-07-24T07:53:35;6.13;;;2.47;;
71969;SDS011;59838;52.152;5.436;2023-07-24T07:56:02;3.72;;;2.63;;
71969;SDS011;59838;52.152;5.436;2023-07-24T07:58:29;5.27;;;3.20;;
71969;SDS011;59838;52.152;5.436;2023-07-24T08:00:55;3.95;;;2.65;;
71969;SDS011;59838;52.152;5.436;2023-07-24T08:03:22;4.85;;;2.97;;
71969;SDS011;59838;52.152;5.436;2023-07-24T08:05:48;6.72;;;2.80;;
71969;SDS011;59838;52.152;5.436;2023-07-24T08:08:15;5.88;;;3.15;;
71969;SDS011;59838;52.152;5.436;2023-07-24T08:10:41;6.63;;;4.03;;
71969;SDS011;59838;52.152;5.436;2023-07-24T08:13:08;4.82;;;3.08;;
71969;SDS011;59838;52.152;5.436;2023-07-24T08:15:37;6.75;;;3.97;;
71969;SDS011;59838;52.152;5.436;2023-07-24T08:18:04;6.32;;;3.10;;
71969;SDS011;59838;52.152;5.436;2023-07-24T08:20:35;8.57;;;3.10;;
71969;SDS011;59838;52.152;5.436;2023-07-24T08:23:02;6.83;;;3.30;;
71969;SDS011;59838;52.152;5.436;2023-07-24T08:25:30;3.38;;;3.05;;
71969;SDS011;59838;52.152;5.436;2023-07-24T08:27:56;4.32;;;2.75;;
71969;SDS011;59838;52.152;5.436;2023-07-24T08:30:31;5.35;;;2.63;;
71969;SDS011;59838;52.152;5.436;2023-07-24T08:32:58;9.20;;;3.40;;
71969;SDS011;59838;52.152;5.436;2023-07-24T08:35:25;6.67;;;3.77;;
71969;SDS011;59838;52.152;5.436;2023-07-24T08:37:52;4.22;;;3.28;;
71969;SDS011;59838;52.152;5.436;2023-07-24T08:40:18;6.85;;;3.22;;
71969;SDS011;59838;52.152;5.436;2023-07-24T08:42:45;3.75;;;3.13;;
71969;SDS011;59838;52.152;5.436;2023-07-24T08:45:15;4.40;;;3.28;;
71969;SDS011;59838;52.152;5.436;2023-07-24T08:47:43;5.93;;;2.67;;
71969;SDS011;59838;52.152;5.436;2023-07-24T08:50:11;4.93;;;2.60;;
71969;SDS011;59838;52.152;5.436;2023-07-24T08:52:39;5.07;;;2.63;;
71969;SDS011;59838;52.152;5.436;2023-07-24T08:55:06;5.80;;;2.50;;
71969;SDS011;59838;52.152;5.436;2023-07-24T08:57:33;6.90;;;3.22;;
71969;SDS011;59838;52.152;5.436;2023-07-24T08:59:59;5.77;;;3.03;;
71969;SDS011;59838;52.152;5.436;2023-07-24T09:02:33;8.23;;;3.20;;
71969;SDS011;59838;52.152;5.436;2023-07-24T09:05:02;6.78;;;2.80;;
71969;SDS011;59838;52.152;5.436;2023-07-24T09:07:30;4.40;;;2.90;;
71969;SDS011;59838;52.152;5.436;2023-07-24T09:09:57;3.65;;;2.58;;
71969;SDS011;59838;52.152;5.436;2023-07-24T09:12:24;4.17;;;2.70;;
71969;SDS011;59838;52.152;5.436;2023-07-24T09:15:00;6.45;;;3.35;;
71969;SDS011;59838;52.152;5.436;2023-07-24T09:17:28;5.97;;;2.63;;
71969;SDS011;59838;52.152;5.436;2023-07-24T09:19:56;3.78;;;2.75;;
71969;SDS011;59838;52.152;5.436;2023-07-24T09:22:24;7.18;;;3.38;;
71969;SDS011;59838;52.152;5.436;2023-07-24T09:24:53;3.33;;;2.97;;
71969;SDS011;59838;52.152;5.436;2023-07-24T09:27:24;6.70;;;3.70;;
71969;SDS011;59838;52.152;5.436;2023-07-24T09:29:52;3.08;;;2.72;;
71969;SDS011;59838;52.152;5.436;2023-07-24T09:32:20;5.72;;;2.78;;
71969;SDS011;59838;52.152;5.436;2023-07-24T09:34:47;5.50;;;2.83;;
71969;SDS011;59838;52.152;5.436;2023-07-24T09:37:24;4.47;;;3.37;;
71969;SDS011;59838;52.152;5.436;2023-07-24T09:39:52;3.40;;;2.60;;
71969;SDS011;59838;52.152;5.436;2023-07-24T09:42:27;3.92;;;2.85;;
71969;SDS011;59838;52.152;5.436;2023-07-24T09:44:56;4.97;;;2.65;;
71969;SDS011;59838;52.152;5.436;2023-07-24T09:47:23;4.78;;;2.83;;
71969;SDS011;59838;52.152;5.436;2023-07-24T09:50:10;6.57;;;3.10;;
71969;SDS011;59838;52.152;5.436;2023-07-24T09:52:36;5.28;;;2.88;;
71969;SDS011;59838;52.152;5.436;2023-07-24T09:55:15;4.20;;;2.80;;
71969;SDS011;59838;52.152;5.436;2023-07-24T09:57:48;3.63;;;3.22;;
71969;SDS011;59838;52.152;5.436;2023-07-24T10:00:16;4.63;;;3.72;;
71969;SDS011;59838;52.152;5.436;2023-07-24T10:02:43;3.40;;;2.50;;
71969;SDS011;59838;52.152;5.436;2023-07-24T10:05:11;4.55;;;2.78;;
71969;SDS011;59838;52.152;5.436;2023-07-24T10:07:38;7.88;;;2.78;;
71969;SDS011;59838;52.152;5.436;2023-07-24T10:10:04;4.65;;;2.58;;
71969;SDS011;59838;52.152;5.436;2023-07-24T10:12:32;3.35;;;2.42;;
71969;SDS011;59838;52.152;5.436;2023-07-24T10:15:00;6.23;;;2.40;;
71969;SDS011;59838;52.152;5.436;2023-07-24T10:17:34;5.88;;;2.63;;
71969;SDS011;59838;52.152;5.436;2023-07-24T10:20:05;5.68;;;2.50;;
71969;SDS011;59838;52.152;5.436;2023-07-24T10:22:33;6.13;;;2.45;;
71969;SDS011;59838;52.152;5.436;2023-07-24T10:25:00;5.95;;;2.30;;
71969;SDS011;59838;52.152;5.436;2023-07-24T10:27:27;4.23;;;2.50;;
71969;SDS011;59838;52.152;5.436;2023-07-24T10:29:58;6.15;;;2.72;;
71969;SDS011;59838;52.152;5.436;2023-07-24T10:32:47;4.05;;;2.08;;
71969;SDS011;59838;52.152;5.436;2023-07-24T10:35:21;3.25;;;2.70;;
71969;SDS011;59838;52.152;5.436;2023-07-24T10:37:58;6.82;;;2.63;;
71969;SDS011;59838;52.152;5.436;2023-07-24T10:40:27;5.00;;;3.00;;
71969;SDS011;59838;52.152;5.436;2023-07-24T10:43:27;6.97;;;3.25;;
71969;SDS011;59838;52.152;5.436;2023-07-24T10:45:52;6.93;;;2.78;;
71969;SDS011;59838;52.152;5.436;2023-07-24T10:48:20;6.00;;;2.08;;
71969;SDS011;59838;52.152;5.436;2023-07-24T10:50:48;3.58;;;2.05;;
71969;SDS011;59838;52.152;5.436;2023-07-24T10:53:20;5.17;;;2.10;;
71969;SDS011;59838;52.152;5.436;2023-07-24T10:55:48;4.40;;;2.45;;
71969;SDS011;59838;52.152;5.436;2023-07-24T10:58:16;6.38;;;2.40;;
71969;SDS011;59838;52.152;5.436;2023-07-24T11:00:43;4.47;;;2.20;;
71969;SDS011;59838;52.152;5.436;2023-07-24T11:03:10;5.78;;;2.72;;
71969;SDS011;59838;52.152;5.436;2023-07-24T11:05:45;5.97;;;2.77;;
71969;SDS011;59838;52.152;5.436;2023-07-24T11:08:13;4.75;;;2.83;;
71969;SDS011;59838;52.152;5.436;2023-07-24T11:10:48;5.13;;;2.55;;
71969;SDS011;59838;52.152;5.436;2023-07-24T11:13:22;3.72;;;2.30;;
71969;SDS011;59838;52.152;5.436;2023-07-24T11:15:51;4.88;;;2.70;;
71969;SDS011;59838;52.152;5.436;2023-07-24T11:18:18;3.70;;;2.47;;
71969;SDS011;59838;52.152;5.436;2023-07-24T11:21:09;6.43;;;2.88;;
71969;SDS011;59838;52.152;5.436;2023-07-24T11:23:44;4.00;;;2.80;;
71969;SDS011;59838;52.152;5.436;2023-07-24T11:26:12;8.40;;;2.80;;
71969;SDS011;59838;52.152;5.436;2023-07-24T11:28:40;4.60;;;2.40;;
71969;SDS011;59838;52.152;5.436;2023-07-24T11:31:07;4.57;;;2.27;;
71969;SDS011;59838;52.152;5.436;2023-07-24T11:33:33;6.05;;;2.55;;
71969;SDS011;59838;52.152;5.436;2023-07-24T11:36:00;2.75;;;2.28;;
71969;SDS011;59838;52.152;5.436;2023-07-24T11:38:28;5.10;;;3.53;;
71969;SDS011;59838;52.152;5.436;2023-07-24T11:40:54;4.25;;;2.75;;
71969;SDS011;59838;52.152;5.436;2023-07-24T11:43:23;6.33;;;3.27;;
71969;SDS011;59838;52.152;5.436;2023-07-24T11:45:51;6.63;;;2.60;;
71969;SDS011;59838;52.152;5.436;2023-07-24T11:48:23;7.63;;;3.20;;
71969;SDS011;59838;52.152;5.436;2023-07-24T11:50:52;4.10;;;3.67;;
71969;SDS011;59838;52.152;5.436;2023-07-24T11:53:23;4.50;;;2.80;;
71969;SDS011;59838;52.152;5.436;2023-07-24T11:55:52;6.30;;;3.10;;
71969;SDS011;59838;52.152;5.436;2023-07-24T11:58:21;4.70;;;3.58;;
71969;SDS011;59838;52.152;5.436;2023-07-24T12:00:48;5.95;;;3.22;;
71969;SDS011;59838;52.152;5.436;2023-07-24T12:03:21;9.93;;;3.95;;
71969;SDS011;59838;52.152;5.436;2023-07-24T12:05:49;7.28;;;4.30;;
71969;SDS011;59838;52.152;5.436;2023-07-24T12:08:17;5.57;;;4.10;;
71969;SDS011;59838;52.152;5.436;2023-07-24T12:10:46;7.05;;;3.58;;
71969;SDS011;59838;52.152;5.436;2023-07-24T12:13:12;5.13;;;3.42;;
71969;SDS011;59838;52.152;5.436;2023-07-24T12:15:39;7.50;;;3.67;;
71969;SDS011;59838;52.152;5.436;2023-07-24T12:18:06;5.63;;;2.80;;
71969;SDS011;59838;52.152;5.436;2023-07-24T12:20:33;6.07;;;3.27;;
71969;SDS011;59838;52.152;5.436;2023-07-24T12:23:01;5.60;;;2.83;;
71969;SDS011;59838;52.152;5.436;2023-07-24T12:25:27;5.10;;;2.80;;
71969;SDS011;59838;52.152;5.436;2023-07-24T12:27:54;5.13;;;2.00;;
71969;SDS011;59838;52.152;5.436;2023-07-24T12:30:20;7.80;;;2.30;;
71969;SDS011;59838;52.152;5.436;2023-07-24T12:32:47;8.43;;;2.50;;
71969;SDS011;59838;52.152;5.436;2023-07-24T12:35:14;7.60;;;3.08;;
71969;SDS011;59838;52.152;5.436;2023-07-24T12:37:42;4.30;;;2.50;;
71969;SDS011;59838;52.152;5.436;2023-07-24T12:40:10;6.05;;;2.53;;
71969;SDS011;59838;52.152;5.436;2023-07-24T12:42:36;3.92;;;2.40;;
71969;SDS011;59838;52.152;5.436;2023-07-24T12:45:04;5.80;;;2.63;;
71969;SDS011;59838;52.152;5.436;2023-07-24T12:47:31;5.28;;;3.53;;
71969;SDS011;59838;52.152;5.436;2023-07-24T12:50:00;5.53;;;2.83;;
71969;SDS011;59838;52.152;5.436;2023-07-24T12:52:28;7.40;;;3.92;;
71969;SDS011;59838;52.152;5.436;2023-07-24T12:54:55;14.30;;;5.47;;
71969;SDS011;59838;52.152;5.436;2023-07-24T12:57:27;14.80;;;3.37;;
71969;SDS011;59838;52.152;5.436;2023-07-24T12:59:54;6.25;;;3.60;;
71969;SDS011;59838;52.152;5.436;2023-07-24T13:02:21;4.97;;;3.20;;
71969;SDS011;59838;52.152;5.436;2023-07-24T13:04:47;5.80;;;2.42;;
71969;SDS011;59838;52.152;5.436;2023-07-24T13:07:14;3.05;;;1.80;;
71969;SDS011;59838;52.152;5.436;2023-07-24T13:09:40;4.77;;;2.17;;
71969;SDS011;59838;52.152;5.436;2023-07-24T13:12:07;2.47;;;1.88;;
71969;SDS011;59838;52.152;5.436;2023-07-24T13:14:34;3.15;;;2.20;;
71969;SDS011;59838;52.152;5.436;2023-07-24T13:17:02;3.72;;;2.30;;
71969;SDS011;59838;52.152;5.436;2023-07-24T13:19:29;3.08;;;2.40;;
71969;SDS011;59838;52.152;5.436;2023-07-24T13:21:55;7.70;;;2.60;;
71969;SDS011;59838;52.152;5.436;2023-07-24T13:24:22;5.85;;;2.90;;
71969;SDS011;59838;52.152;5.436;2023-07-24T13:26:48;7.57;;;3.33;;
71969;SDS011;59838;52.152;5.436;2023-07-24T13:29:15;4.63;;;3.70;;
71969;SDS011;59838;52.152;5.436;2023-07-24T13:31:42;6.88;;;3.45;;
71969;SDS011;59838;52.152;5.436;2023-07-24T13:34:08;6.80;;;3.93;;
71969;SDS011;59838;52.152;5.436;2023-07-24T13:36:35;6.43;;;4.47;;
71969;SDS011;59838;52.152;5.436;2023-07-24T13:39:01;7.93;;;4.28;;
71969;SDS011;59838;52.152;5.436;2023-07-24T13:41:29;6.93;;;4.25;;
71969;SDS011;59838;52.152;5.436;2023-07-24T13:43:56;7.53;;;4.70;;
71969;SDS011;59838;52.152;5.436;2023-07-24T13:46:22;6.93;;;4.60;;
71969;SDS011;59838;52.152;5.436;2023-07-24T13:48:49;6.78;;;4.63;;
71969;SDS011;59838;52.152;5.436;2023-07-24T13:51:15;7.60;;;4.53;;
71969;SDS011;59838;52.152;5.436;2023-07-24T13:53:42;7.85;;;4.50;;
71969;SDS011;59838;52.152;5.436;2023-07-24T13:56:08;8.88;;;4.05;;
71969;SDS011;59838;52.152;5.436;2023-07-24T13:58:36;5.63;;;4.00;;
71969;SDS011;59838;52.152;5.436;2023-07-24T14:01:04;7.78;;;4.18;;
71969;SDS011;59838;52.152;5.436;2023-07-24T14:03:33;6.95;;;3.63;;
71969;SDS011;59838;52.152;5.436;2023-07-24T14:06:00;5.95;;;3.85;;
71969;SDS011;59838;52.152;5.436;2023-07-24T14:08:26;5.68;;;3.35;;
71969;SDS011;59838;52.152;5.436;2023-07-24T14:10:53;5.33;;;3.60;;
71969;SDS011;59838;52.152;5.436;2023-07-24T14:13:19;7.32;;;3.80;;
71969;SDS011;59838;52.152;5.436;2023-07-24T14:15:46;6.25;;;3.90;;
71969;SDS011;59838;52.152;5.436;2023-07-24T14:18:12;5.22;;;3.55;;
71969;SDS011;59838;52.152;5.436;2023-07-24T14:20:39;5.13;;;3.45;;
71969;SDS011;59838;52.152;5.436;2023-07-24T14:23:07;4.70;;;3.17;;
71969;SDS011;59838;52.152;5.436;2023-07-24T14:25:34;7.03;;;3.90;;
71969;SDS011;59838;52.152;5.436;2023-07-24T14:28:01;4.75;;;2.55;;
71969;SDS011;59838;52.152;5.436;2023-07-24T14:30:27;4.47;;;3.13;;
71969;SDS011;59838;52.152;5.436;2023-07-24T14:32:55;4.38;;;2.88;;
71969;SDS011;59838;52.152;5.436;2023-07-24T14:35:21;4.50;;;2.10;;
71969;SDS011;59838;52.152;5.436;2023-07-24T14:37:48;5.47;;;1.67;;
71969;SDS011;59838;52.152;5.436;2023-07-24T14:40:14;8.15;;;1.20;;
71969;SDS011;59838;52.152;5.436;2023-07-24T14:42:41;3.10;;;1.30;;
71969;SDS011;59838;52.152;5.436;2023-07-24T14:45:07;3.15;;;1.58;;
71969;SDS011;59838;52.152;5.436;2023-07-24T14:47:34;1.90;;;0.97;;
71969;SDS011;59838;52.152;5.436;2023-07-24T14:50:01;3.17;;;0.77;;